Sikeston, Missouri
Current Conditions -  °F | °C
As of 12:55 AM on Monday 22 Dec 2014 (Local Time) from KCIR Reporting Station
Overcast Overcast  
Wind Chill: 43°   Ceiling: 10000
Heat Index: 43°   Visibility: 10mi
Dew Point: 34°   Wind: 3mph
Humidity: 71%   Direction: 80°E
Pressure: 29.94"   Gusts: NA
Location:  36.88°N, 89.59°W
Report Text: KCIR 220655Z AUTO 08003KT 10SM SCT075 OVC100 06/01 A2994 RMK AO2 T00590011
Loading
Personal Weather Stations






























Interactive Weather Map New forecast layout! Learn more

10-Day Weather Forecast

Advertisements
Track Severe Weather on mobile